createdAt,value
2022-11-23T00:01:37.513Z,99275.28
2022-11-23T00:04:12.668Z,99275.59
2022-11-23T00:06:41.331Z,99279.63
2022-11-23T00:09:11.229Z,99276.00
2022-11-23T00:11:42.104Z,99271.19
2022-11-23T00:14:10.311Z,99274.00
2022-11-23T00:16:38.090Z,99266.41
2022-11-23T00:19:05.985Z,99282.28
2022-11-23T00:21:37.267Z,99273.78
2022-11-23T00:24:05.448Z,99269.66
2022-11-23T00:26:33.252Z,99274.00
2022-11-23T00:29:01.417Z,99259.78
2022-11-23T00:31:29.469Z,99269.81
2022-11-23T00:33:58.348Z,99263.88
2022-11-23T00:36:29.352Z,99256.94
2022-11-23T00:39:01.457Z,99265.34
2022-11-23T00:41:29.720Z,99264.34
2022-11-23T00:43:57.636Z,99257.03
2022-11-23T00:46:27.630Z,99263.25
2022-11-23T00:48:57.680Z,99267.53
2022-11-23T00:51:34.479Z,99266.59
2022-11-23T00:54:05.602Z,99264.66
2022-11-23T00:56:35.434Z,99263.41
2022-11-23T00:59:04.496Z,99254.75
2022-11-23T01:01:39.663Z,99259.31
2022-11-23T01:04:09.460Z,99263.41
2022-11-23T01:06:39.972Z,99249.81
2022-11-23T01:09:14.852Z,99244.25
2022-11-23T01:11:42.697Z,99240.00
2022-11-23T01:14:11.965Z,99237.47
2022-11-23T01:16:42.020Z,99236.88
2022-11-23T01:19:18.141Z,99238.59
2022-11-23T01:21:48.370Z,99246.37
2022-11-23T01:24:19.285Z,99252.31
2022-11-23T01:26:54.426Z,99246.37
2022-11-23T01:29:24.302Z,99244.84
2022-11-23T01:31:52.272Z,99246.78
2022-11-23T01:34:23.173Z,99252.78
2022-11-23T01:36:51.425Z,99253.53
2022-11-23T01:39:19.373Z,99248.28
2022-11-23T01:41:47.304Z,99243.44
2022-11-23T01:44:33.827Z,99246.91
2022-11-23T01:47:09.952Z,99242.19
2022-11-23T01:49:49.772Z,99245.16
2022-11-23T01:52:23.504Z,99254.59
2022-11-23T01:54:57.406Z,99264.94
2022-11-23T01:57:35.158Z,99255.44
2022-11-23T02:00:04.875Z,99255.44
2022-11-23T02:02:46.862Z,99260.59
2022-11-23T02:05:21.822Z,99258.09
2022-11-23T02:07:50.329Z,99255.50
2022-11-23T02:10:20.011Z,99260.53
2022-11-23T02:12:47.945Z,99258.09
2022-11-23T02:15:36.614Z,99258.09
2022-11-23T02:18:11.033Z,99251.94
2022-11-23T02:20:39.685Z,99251.38
2022-11-23T02:23:07.509Z,99253.91
2022-11-23T02:25:44.821Z,99247.91
2022-11-23T02:28:18.371Z,99254.19
2022-11-23T02:30:49.119Z,99254.37
2022-11-23T02:33:17.503Z,99257.78
2022-11-23T02:35:51.197Z,99256.84
2022-11-23T02:38:20.414Z,99253.44
2022-11-23T02:40:48.471Z,99260.22
2022-11-23T02:46:05.173Z,99264.63
2022-11-23T02:48:32.814Z,99248.19
2022-11-23T02:51:03.997Z,99248.63
2022-11-23T02:53:32.158Z,99242.56
2022-11-23T02:55:59.988Z,99236.28
2022-11-23T02:58:27.887Z,99235.56
2022-11-23T03:00:56.221Z,99228.03
2022-11-23T03:03:23.944Z,99232.75
2022-11-23T03:05:51.780Z,99237.09
2022-11-23T03:08:20.409Z,99237.69
2022-11-23T03:10:49.136Z,99234.50
2022-11-23T03:13:17.033Z,99238.63
2022-11-23T03:15:48.505Z,99237.78
2022-11-23T03:18:16.624Z,99232.53
2022-11-23T03:20:44.759Z,99231.69
2022-11-23T03:23:12.884Z,99237.84
2022-11-23T03:25:44.180Z,99234.34
2022-11-23T03:28:13.983Z,99236.88
2022-11-23T03:30:43.748Z,99231.69
2022-11-23T03:33:11.780Z,99223.25
2022-11-23T03:35:40.729Z,99228.41
2022-11-23T03:38:11.212Z,99234.03
2022-11-23T03:40:39.525Z,99233.28
2022-11-23T03:43:11.645Z,99224.28
2022-11-23T03:45:39.670Z,99220.81
2022-11-23T03:48:08.492Z,99224.16
2022-11-23T03:50:36.410Z,99225.81
2022-11-23T03:53:04.381Z,99225.69
2022-11-23T03:55:34.796Z,99223.87
2022-11-23T03:58:03.549Z,99217.75
2022-11-23T04:00:32.771Z,99216.72
2022-11-23T04:03:04.759Z,99220.50
2022-11-23T04:05:45.220Z,99224.16
2022-11-23T04:08:14.617Z,99231.00
2022-11-23T04:10:43.213Z,99227.56
2022-11-23T04:13:13.249Z,99232.69
2022-11-23T04:15:41.599Z,99225.69
2022-11-23T04:18:09.733Z,99227.06
2022-11-23T04:20:38.642Z,99236.47
2022-11-23T04:23:11.756Z,99226.41
2022-11-23T04:25:41.219Z,99246.81
2022-11-23T04:28:10.503Z,99238.28
2022-11-23T04:30:38.832Z,99235.34
2022-11-23T04:33:07.084Z,99234.88
2022-11-23T04:35:37.330Z,99240.34
2022-11-23T04:38:07.886Z,99240.56
2022-11-23T04:40:39.984Z,99249.22
2022-11-23T04:43:09.899Z,99252.16
2022-11-23T04:45:40.320Z,99250.00
2022-11-23T04:48:08.592Z,99247.69
2022-11-23T04:50:40.379Z,99245.87
2022-11-23T04:53:09.686Z,99249.22
2022-11-23T04:55:38.255Z,99250.84
2022-11-23T04:58:06.627Z,99250.44
2022-11-23T05:00:35.122Z,99250.09
2022-11-23T05:03:03.696Z,99255.91
2022-11-23T05:05:32.012Z,99247.28
2022-11-23T05:08:03.518Z,99252.41
2022-11-23T05:10:32.715Z,99239.78
2022-11-23T05:13:01.629Z,99250.81
2022-11-23T05:15:30.001Z,99250.53
2022-11-23T05:18:05.057Z,99254.19
2022-11-23T05:20:34.553Z,99261.44
2022-11-23T05:23:02.397Z,99267.56
2022-11-23T05:25:30.986Z,99276.81
2022-11-23T05:28:07.542Z,99272.47
2022-11-23T05:30:45.868Z,99274.16
2022-11-23T05:33:17.663Z,99271.38
2022-11-23T05:35:46.279Z,99273.47
2022-11-23T05:38:16.490Z,99275.97
2022-11-23T05:40:46.325Z,99270.44
2022-11-23T05:43:14.982Z,99268.41
2022-11-23T05:45:43.708Z,99268.22
2022-11-23T05:48:11.942Z,99265.22
2022-11-23T05:50:41.341Z,99268.87
2022-11-23T05:53:17.421Z,99260.59
2022-11-23T05:55:46.693Z,99271.88
2022-11-23T05:58:17.833Z,99271.47
2022-11-23T06:00:46.084Z,99281.81
2022-11-23T06:03:14.995Z,99277.06
2022-11-23T06:05:47.777Z,99267.28
2022-11-23T06:08:18.087Z,99277.41
2022-11-23T06:10:48.799Z,99277.00
2022-11-23T06:13:17.094Z,99287.19
2022-11-23T06:15:45.475Z,99275.69
2022-11-23T06:18:14.386Z,99275.41
2022-11-23T06:20:43.879Z,99279.31
2022-11-23T06:23:12.661Z,99268.56
2022-11-23T06:25:41.126Z,99269.94
2022-11-23T06:28:09.765Z,99270.06
2022-11-23T06:30:39.203Z,99267.34
2022-11-23T06:33:07.489Z,99275.56
2022-11-23T06:35:37.015Z,99275.63
2022-11-23T06:38:05.660Z,99275.28
2022-11-23T06:40:34.517Z,99277.19
2022-11-23T06:43:04.012Z,99275.84
2022-11-23T06:45:32.819Z,99282.94
2022-11-23T06:48:01.310Z,99279.28
2022-11-23T06:50:30.460Z,99283.81
2022-11-23T06:52:58.881Z,99282.06
2022-11-23T06:55:27.442Z,99276.41
2022-11-23T06:57:58.934Z,99275.28
2022-11-23T07:00:26.846Z,99272.34
2022-11-23T07:02:56.823Z,99270.59
2022-11-23T07:05:25.272Z,99276.75
2022-11-23T07:07:54.273Z,99258.47
2022-11-23T07:10:23.215Z,99267.16
2022-11-23T07:12:51.376Z,99279.50
2022-11-23T07:15:20.761Z,99273.94
2022-11-23T07:17:52.340Z,99284.94
2022-11-23T07:20:20.631Z,99274.59
2022-11-23T07:22:48.767Z,99283.22
2022-11-23T07:25:19.278Z,99283.28
2022-11-23T07:27:47.129Z,99290.31
2022-11-23T07:30:15.748Z,99251.47
2022-11-23T07:32:43.859Z,99283.75
2022-11-23T07:35:13.061Z,99293.81
2022-11-23T07:37:42.224Z,99288.69
2022-11-23T07:40:10.986Z,99294.81
2022-11-23T07:42:45.083Z,99298.22
2022-11-23T07:45:13.976Z,99298.09
2022-11-23T07:47:43.670Z,99291.13
2022-11-23T07:50:13.135Z,99300.22
2022-11-23T07:52:41.939Z,99296.72
2022-11-23T07:55:09.968Z,99297.94
2022-11-23T07:57:37.778Z,99304.75
2022-11-23T08:00:06.614Z,99296.53
2022-11-23T08:02:57.727Z,99295.34
2022-11-23T08:05:26.994Z,99299.97
2022-11-23T08:08:01.570Z,99297.88
2022-11-23T08:10:31.359Z,99299.28
2022-11-23T08:13:00.156Z,99297.94
2022-11-23T08:15:28.581Z,99306.38
2022-11-23T08:17:58.056Z,99300.81
2022-11-23T08:20:26.936Z,99308.41
2022-11-23T08:22:56.214Z,99307.25
2022-11-23T08:25:26.178Z,99312.63
2022-11-23T08:28:02.153Z,99307.78
2022-11-23T08:30:32.186Z,99299.00
2022-11-23T08:33:07.860Z,99310.09
2022-11-23T08:35:37.579Z,99306.03
2022-11-23T08:38:06.692Z,99307.78
2022-11-23T08:40:35.052Z,99302.94
2022-11-23T08:43:03.412Z,99294.22
2022-11-23T08:45:31.333Z,99303.16
2022-11-23T08:48:04.166Z,99302.63
2022-11-23T08:50:34.727Z,99294.38
2022-11-23T08:53:02.590Z,99298.56
2022-11-23T08:55:30.471Z,99299.34
2022-11-23T08:57:59.791Z,99290.88
2022-11-23T09:00:31.114Z,99303.41
2022-11-23T09:02:59.720Z,99307.50
2022-11-23T09:05:28.430Z,99311.62
2022-11-23T09:07:59.660Z,99307.78
2022-11-23T09:10:28.050Z,99309.16
2022-11-23T09:12:59.716Z,99304.91
2022-11-23T09:15:28.020Z,99310.31
2022-11-23T09:17:57.269Z,99315.31
2022-11-23T09:20:25.591Z,99308.28
2022-11-23T09:22:55.169Z,99304.97
2022-11-23T09:25:23.583Z,99308.69
2022-11-23T09:27:59.065Z,99310.28
2022-11-23T09:30:28.208Z,99308.22
2022-11-23T09:32:58.270Z,99301.28
2022-11-23T09:35:26.543Z,99305.75
2022-11-23T09:37:59.422Z,99300.44
2022-11-23T09:40:36.583Z,99300.63
2022-11-23T09:43:29.449Z,99297.50
2022-11-23T09:46:03.338Z,99295.69
2022-11-23T09:49:12.659Z,99301.41
2022-11-23T09:51:42.208Z,99297.75
2022-11-23T09:54:37.976Z,99306.81
2022-11-23T09:57:06.123Z,99294.28
2022-11-23T09:59:40.597Z,99299.19
2022-11-23T10:02:21.919Z,99297.06
2022-11-23T10:04:52.973Z,99298.44
2022-11-23T10:07:49.697Z,99304.22
2022-11-23T10:10:39.265Z,99298.88
2022-11-23T10:13:23.820Z,99301.00
2022-11-23T10:16:14.069Z,99298.28
2022-11-23T10:18:49.450Z,99311.03
2022-11-23T10:21:35.314Z,99298.50
2022-11-23T10:24:20.398Z,99302.75
2022-11-23T10:26:51.755Z,99305.31
2022-11-23T10:29:36.544Z,99298.22
2022-11-23T10:32:14.562Z,99300.63
2022-11-23T10:35:02.956Z,99303.75
2022-11-23T10:37:32.557Z,99308.69
2022-11-23T10:40:00.511Z,99313.47
2022-11-23T10:42:42.587Z,99317.59
2022-11-23T10:45:28.232Z,99318.75
2022-11-23T10:48:00.663Z,99321.91
2022-11-23T10:50:34.118Z,99315.66
2022-11-23T10:53:22.786Z,99322.53
2022-11-23T10:55:55.323Z,99326.62
2022-11-23T10:58:35.372Z,99322.28
2022-11-23T11:01:24.977Z,99328.25
2022-11-23T11:03:56.965Z,99325.84
2022-11-23T11:06:27.688Z,99318.69
2022-11-23T11:09:03.733Z,99325.88
2022-11-23T11:11:35.665Z,99323.31
2022-11-23T11:14:23.754Z,99334.34
2022-11-23T11:16:54.336Z,99323.25
2022-11-23T11:19:36.777Z,99334.62
2022-11-23T11:22:34.106Z,99328.84
2022-11-23T11:25:06.152Z,99336.31
2022-11-23T11:27:35.041Z,99334.66
2022-11-23T11:30:21.363Z,99335.06
2022-11-23T11:33:09.839Z,99336.75
2022-11-23T11:35:41.579Z,99337.84
2022-11-23T11:38:16.359Z,99344.72
2022-11-23T11:40:50.401Z,99329.59
2022-11-23T11:43:32.390Z,99345.59
2022-11-23T11:46:36.905Z,99348.62
2022-11-23T11:49:19.826Z,99335.59
2022-11-23T11:51:53.551Z,99351.81
2022-11-23T11:54:30.668Z,99360.19
2022-11-23T11:57:23.800Z,99356.91
2022-11-23T11:59:58.738Z,99373.16
2022-11-23T12:02:43.737Z,99364.28
2022-11-23T12:05:24.740Z,99371.28
2022-11-23T12:08:18.758Z,99361.06
2022-11-23T12:10:50.036Z,99372.75
2022-11-23T12:13:22.656Z,99377.66
2022-11-23T12:16:15.825Z,99385.47
2022-11-23T12:19:05.758Z,99388.16
2022-11-23T12:22:10.909Z,99388.06
2022-11-23T12:24:55.056Z,99399.34
2022-11-23T12:27:23.601Z,99396.09
2022-11-23T12:30:13.006Z,99400.50
2022-11-23T12:32:59.860Z,99413.16
2022-11-23T12:36:09.979Z,99415.53
2022-11-23T12:38:54.894Z,99416.97
2022-11-23T12:41:39.621Z,99416.97
2022-11-23T12:44:25.918Z,99419.63
2022-11-23T12:46:53.632Z,99417.91
2022-11-23T12:49:42.296Z,99423.13
2022-11-23T12:52:24.899Z,99425.56
2022-11-23T12:55:21.028Z,99427.75
2022-11-23T12:58:17.229Z,99429.37
2022-11-23T13:00:55.882Z,99438.94
2022-11-23T13:03:45.144Z,99435.59
2022-11-23T13:06:16.016Z,99440.66
2022-11-23T13:08:49.577Z,99446.50
2022-11-23T13:11:41.562Z,99444.91
2022-11-23T13:14:15.444Z,99456.00
2022-11-23T13:17:05.381Z,99457.28
2022-11-23T13:19:36.053Z,99453.56
2022-11-23T13:22:08.856Z,99458.97
2022-11-23T13:24:41.039Z,99461.94
2022-11-23T13:27:15.318Z,99466.41
2022-11-23T13:29:50.551Z,99461.94
2022-11-23T13:32:43.082Z,99464.28
2022-11-23T13:35:17.224Z,99471.66
2022-11-23T13:37:57.317Z,99464.28
2022-11-23T13:40:37.049Z,99466.34
2022-11-23T13:43:18.172Z,99475.97
2022-11-23T13:45:46.353Z,99477.72
2022-11-23T13:48:49.074Z,99474.34
2022-11-23T13:51:08.621Z,99476.47
2022-11-23T13:53:42.941Z,99475.59
2022-11-23T13:56:43.231Z,99469.69
2022-11-23T13:59:30.619Z,99477.84
2022-11-23T14:02:07.957Z,99483.13
2022-11-23T14:04:41.920Z,99488.25
2022-11-23T14:07:19.485Z,99500.38
2022-11-23T14:10:06.740Z,99501.88
2022-11-23T14:12:57.099Z,99499.34
2022-11-23T14:15:29.537Z,99500.50
2022-11-23T14:18:36.966Z,99507.28
2022-11-23T14:21:13.966Z,99499.66
2022-11-23T14:24:22.944Z,99503.81
2022-11-23T14:27:45.089Z,99507.47
2022-11-23T14:30:23.253Z,99513.56
2022-11-23T14:33:08.499Z,99519.91
2022-11-23T14:36:06.713Z,99524.31
2022-11-23T14:39:17.722Z,99537.03
2022-11-23T14:41:51.184Z,99530.19
2022-11-23T14:44:24.148Z,99528.87
2022-11-23T14:47:06.702Z,99533.06
2022-11-23T14:49:35.584Z,99540.91
2022-11-23T14:52:06.127Z,99536.97
2022-11-23T14:54:35.587Z,99535.28
2022-11-23T14:57:05.307Z,99544.94
2022-11-23T14:59:41.267Z,99548.97
2022-11-23T15:02:26.519Z,99554.59
2022-11-23T15:05:08.069Z,99553.19
2022-11-23T15:07:56.453Z,99553.88
2022-11-23T15:10:45.154Z,99551.50
2022-11-23T15:13:22.174Z,99549.88
2022-11-23T15:15:55.512Z,99560.63
2022-11-23T15:18:35.594Z,99566.97
2022-11-23T15:21:14.694Z,99571.50
2022-11-23T15:23:54.348Z,99566.50
2022-11-23T15:26:46.692Z,99570.34
2022-11-23T15:29:34.014Z,99570.00
2022-11-23T15:32:28.532Z,99575.59
2022-11-23T15:34:54.175Z,99573.19
2022-11-23T15:37:23.816Z,99580.59
2022-11-23T15:39:54.201Z,99581.56
2022-11-23T15:42:25.883Z,99574.78
2022-11-23T15:44:54.747Z,99590.81
2022-11-23T15:47:31.279Z,99592.38
2022-11-23T15:50:03.402Z,99599.56
2022-11-23T15:52:36.110Z,99604.81
2022-11-23T15:55:13.222Z,99595.59
2022-11-23T15:57:42.112Z,99610.47
2022-11-23T16:00:25.244Z,99614.81
2022-11-23T16:03:16.064Z,99607.81
2022-11-23T16:05:43.992Z,99618.66
2022-11-23T16:08:25.658Z,99619.25
2022-11-23T16:10:55.537Z,99602.91
2022-11-23T16:13:38.532Z,99632.06
2022-11-23T16:16:15.288Z,99632.38
2022-11-23T16:18:49.016Z,99634.44
2022-11-23T16:21:19.956Z,99629.63
2022-11-23T16:23:55.755Z,99653.22
2022-11-23T16:26:34.330Z,99651.97
2022-11-23T16:29:03.914Z,99648.97
2022-11-23T16:31:40.739Z,99654.62
2022-11-23T16:34:18.129Z,99656.78
2022-11-23T16:36:46.642Z,99649.69
2022-11-23T16:39:14.842Z,99650.66
2022-11-23T16:41:42.525Z,99658.13
2022-11-23T16:44:10.325Z,99654.09
2022-11-23T16:46:43.277Z,99655.75
2022-11-23T16:49:23.869Z,99657.87
2022-11-23T16:51:57.075Z,99660.53
2022-11-23T16:54:25.759Z,99656.44
2022-11-23T16:56:54.213Z,99657.84
2022-11-23T16:59:24.044Z,99666.22
2022-11-23T17:01:56.950Z,99657.78
2022-11-23T17:04:26.297Z,99669.47
2022-11-23T17:06:54.110Z,99668.16
2022-11-23T17:09:21.767Z,99670.91
2022-11-23T17:11:52.608Z,99675.81
2022-11-23T17:14:24.101Z,99674.63
2022-11-23T17:16:55.199Z,99675.25
2022-11-23T17:19:23.480Z,99677.69
2022-11-23T17:24:36.771Z,99692.38
2022-11-23T17:27:04.538Z,99689.72
2022-11-23T17:29:35.612Z,99705.78
2022-11-23T17:32:06.850Z,99696.66
2022-11-23T17:34:34.530Z,99706.34
2022-11-23T17:37:02.373Z,99714.13
2022-11-23T17:39:31.210Z,99722.53
2022-11-23T17:44:44.937Z,99723.62
2022-11-23T17:47:24.449Z,99727.50
2022-11-23T17:49:53.181Z,99728.09
2022-11-23T17:52:21.513Z,99735.47
2022-11-23T17:54:49.278Z,99727.03
2022-11-23T17:57:20.405Z,99728.81
2022-11-23T17:59:48.140Z,99724.84
2022-11-23T18:02:16.690Z,99718.87
2022-11-23T18:04:44.827Z,99722.25
2022-11-23T18:07:16.945Z,99733.78
2022-11-23T18:09:45.126Z,99729.28
2022-11-23T18:12:12.768Z,99738.00
2022-11-23T18:20:11.786Z,99746.06
2022-11-23T18:22:39.952Z,99747.66
2022-11-23T18:25:08.328Z,99748.59
2022-11-23T18:27:36.043Z,99752.62
2022-11-23T18:30:04.881Z,99751.59
2022-11-23T18:32:33.000Z,99753.75
2022-11-23T18:35:00.712Z,99754.12
2022-11-23T18:37:29.296Z,99759.09
2022-11-23T18:39:57.078Z,99770.97
2022-11-23T18:42:24.776Z,99780.47
2022-11-23T18:44:52.839Z,99786.50
2022-11-23T18:47:20.569Z,99785.81
2022-11-23T18:49:48.306Z,99784.00
2022-11-23T18:52:17.414Z,99787.06
2022-11-23T18:54:45.099Z,99793.38
2022-11-23T18:57:16.759Z,99798.78
2022-11-23T19:00:00.865Z,99802.50
2022-11-23T19:02:31.323Z,99800.38
2022-11-23T19:04:59.440Z,99808.53
2022-11-23T19:07:27.636Z,99819.31
2022-11-23T19:09:55.465Z,99805.44
2022-11-23T19:12:23.957Z,99824.97
2022-11-23T19:14:51.594Z,99825.22
2022-11-23T19:17:19.594Z,99821.47
2022-11-23T19:19:47.658Z,99827.06
2022-11-23T19:22:15.393Z,99822.69
2022-11-23T19:24:43.344Z,99826.84
2022-11-23T19:27:11.362Z,99822.03
2022-11-23T19:29:39.195Z,99832.00
2022-11-23T19:32:07.074Z,99832.94
2022-11-23T19:34:35.392Z,99837.78
2022-11-23T19:37:03.112Z,99844.84
2022-11-23T19:39:30.895Z,99841.53
2022-11-23T19:41:59.272Z,99852.44
2022-11-23T19:44:26.932Z,99849.88
2022-11-23T19:46:54.859Z,99851.97
2022-11-23T19:49:22.926Z,99851.09
2022-11-23T19:51:52.930Z,99857.56
2022-11-23T19:54:20.680Z,99849.03
2022-11-23T19:56:50.692Z,99854.69
2022-11-23T19:59:18.635Z,99859.22
2022-11-23T20:01:46.436Z,99855.59
2022-11-23T20:04:14.750Z,99854.00
2022-11-23T20:06:42.725Z,99858.47
2022-11-23T20:09:19.674Z,99858.97
2022-11-23T20:11:51.227Z,99853.28
2022-11-23T20:14:20.095Z,99855.44
2022-11-23T20:16:48.629Z,99859.97
2022-11-23T20:19:16.503Z,99857.28
2022-11-23T20:21:44.427Z,99865.03
2022-11-23T20:24:14.159Z,99870.03
2022-11-23T20:26:43.150Z,99874.06
2022-11-23T20:29:11.357Z,99867.88
2022-11-23T20:31:39.709Z,99878.09
2022-11-23T20:34:10.014Z,99882.00
2022-11-23T20:36:40.559Z,99882.84
2022-11-23T20:39:11.446Z,99899.88
2022-11-23T20:41:39.584Z,99898.59
2022-11-23T20:44:11.745Z,99896.94
2022-11-23T20:49:28.263Z,99913.00
2022-11-23T20:51:55.977Z,99915.41
2022-11-23T20:54:23.915Z,99923.94
2022-11-23T20:56:55.107Z,99914.38
2022-11-23T20:59:24.142Z,99914.09
2022-11-23T21:01:52.644Z,99923.44
2022-11-23T21:04:20.421Z,99924.41
2022-11-23T21:06:48.077Z,99925.53
2022-11-23T21:09:17.367Z,99924.25
2022-11-23T21:12:03.437Z,99929.28
2022-11-23T21:14:33.168Z,99927.06
2022-11-23T21:17:01.655Z,99929.53
2022-11-23T21:19:37.855Z,99934.91
2022-11-23T21:22:08.723Z,99939.53
2022-11-23T21:24:37.049Z,99946.59
2022-11-23T21:27:06.567Z,99952.09
2022-11-23T21:29:35.147Z,99948.69
2022-11-23T21:32:02.926Z,99954.03
2022-11-23T21:34:31.817Z,99954.75
2022-11-23T21:37:00.637Z,99953.41
2022-11-23T21:39:31.190Z,99949.28
2022-11-23T21:41:59.420Z,99961.97
2022-11-23T21:44:27.762Z,99962.97
2022-11-23T21:46:55.784Z,99965.19
2022-11-23T21:49:23.598Z,99968.94
2022-11-23T21:51:51.777Z,99968.06
2022-11-23T21:54:22.733Z,99974.56
2022-11-23T21:56:50.594Z,99975.69
2022-11-23T21:59:18.999Z,99969.59
2022-11-23T22:01:46.859Z,99962.66
2022-11-23T22:04:16.532Z,99977.72
2022-11-23T22:06:45.721Z,99981.81
2022-11-23T22:09:14.042Z,99977.41
2022-11-23T22:11:45.365Z,99983.31
2022-11-23T22:14:15.743Z,99994.84
2022-11-23T22:16:54.754Z,99997.41
2022-11-23T22:19:23.209Z,99995.91
2022-11-23T22:21:54.661Z,99989.53
2022-11-23T22:24:23.028Z,99979.19
2022-11-23T22:26:51.240Z,99994.03
2022-11-23T22:29:19.185Z,99983.03
2022-11-23T22:31:47.173Z,99995.16
2022-11-23T22:34:15.639Z,99992.72
2022-11-23T22:36:43.836Z,100000.56
2022-11-23T22:39:11.953Z,100000.91
2022-11-23T22:41:40.192Z,100004.28
2022-11-23T22:44:10.393Z,100005.91
2022-11-23T22:46:39.413Z,100011.53
2022-11-23T22:49:07.908Z,100005.00
2022-11-23T22:51:39.199Z,100007.66
2022-11-23T22:54:07.538Z,100008.38
2022-11-23T22:56:35.442Z,100011.75
2022-11-23T22:59:03.658Z,100000.00
2022-11-23T23:01:32.527Z,100017.91
2022-11-23T23:04:03.304Z,100015.69
2022-11-23T23:06:35.131Z,100021.69
2022-11-23T23:09:05.915Z,100019.03
2022-11-23T23:11:35.104Z,100022.72
2022-11-23T23:14:06.593Z,100026.56
2022-11-23T23:16:38.161Z,100027.81
2022-11-23T23:19:06.658Z,100024.31
2022-11-23T23:21:35.068Z,100024.84
2022-11-23T23:24:03.107Z,100025.53
2022-11-23T23:26:31.038Z,100027.69
2022-11-23T23:29:00.767Z,100024.78
2022-11-23T23:31:30.168Z,100023.72
2022-11-23T23:33:59.795Z,100030.47
2022-11-23T23:36:28.532Z,100023.03
2022-11-23T23:38:57.820Z,100035.69
2022-11-23T23:41:25.980Z,100035.06
2022-11-23T23:43:54.318Z,100034.66
2022-11-23T23:46:22.780Z,100037.84
2022-11-23T23:48:50.783Z,100018.34
2022-11-23T23:51:22.254Z,100039.00
2022-11-23T23:53:51.680Z,100034.72
2022-11-23T23:56:25.666Z,100039.53
2022-11-23T23:58:57.139Z,100039.63
